sensor_id;sensor_type;location;lat;lon;timestamp;temperature;humidity
39189;DHT22;24915;50.858;4.376;2022-12-19T00:01:20;4.80;99.90
39189;DHT22;24915;50.858;4.376;2022-12-19T00:03:48;4.90;99.90
39189;DHT22;24915;50.858;4.376;2022-12-19T00:06:15;4.90;99.90
39189;DHT22;24915;50.858;4.376;2022-12-19T00:08:44;4.90;99.90
39189;DHT22;24915;50.858;4.376;2022-12-19T00:11:11;4.90;99.90
39189;DHT22;24915;50.858;4.376;2022-12-19T00:13:37;4.90;99.90
39189;DHT22;24915;50.858;4.376;2022-12-19T00:16:14;4.90;99.90
39189;DHT22;24915;50.858;4.376;2022-12-19T00:18:41;5.00;99.90
39189;DHT22;24915;50.858;4.376;2022-12-19T00:21:09;4.90;99.90
39189;DHT22;24915;50.858;4.376;2022-12-19T00:23:35;4.90;99.90
39189;DHT22;24915;50.858;4.376;2022-12-19T00:26:11;5.00;99.90
39189;DHT22;24915;50.858;4.376;2022-12-19T00:28:37;5.00;99.90
39189;DHT22;24915;50.858;4.376;2022-12-19T00:31:03;5.00;99.90
39189;DHT22;24915;50.858;4.376;2022-12-19T00:33:29;5.00;99.90
39189;DHT22;24915;50.858;4.376;2022-12-19T00:35:59;5.00;99.90
39189;DHT22;24915;50.858;4.376;2022-12-19T00:38:25;5.00;99.90
39189;DHT22;24915;50.858;4.376;2022-12-19T00:40:51;5.00;99.90
39189;DHT22;24915;50.858;4.376;2022-12-19T00:43:17;5.10;99.90
39189;DHT22;24915;50.858;4.376;2022-12-19T00:45:43;5.00;99.90
39189;DHT22;24915;50.858;4.376;2022-12-19T00:48:08;5.10;99.90
39189;DHT22;24915;50.858;4.376;2022-12-19T00:50:34;5.10;99.90
39189;DHT22;24915;50.858;4.376;2022-12-19T00:52:59;5.10;99.90
39189;DHT22;24915;50.858;4.376;2022-12-19T00:55:25;5.10;99.90
39189;DHT22;24915;50.858;4.376;2022-12-19T00:57:51;5.20;99.90
39189;DHT22;24915;50.858;4.376;2022-12-19T01:00:16;5.20;99.90
39189;DHT22;24915;50.858;4.376;2022-12-19T01:02:42;5.30;99.90
39189;DHT22;24915;50.858;4.376;2022-12-19T01:05:09;5.30;99.90
39189;DHT22;24915;50.858;4.376;2022-12-19T01:07:35;5.30;99.90
39189;DHT22;24915;50.858;4.376;2022-12-19T01:10:01;5.30;99.90
39189;DHT22;24915;50.858;4.376;2022-12-19T01:12:27;5.40;99.90
39189;DHT22;24915;50.858;4.376;2022-12-19T01:15:16;5.50;99.90
39189;DHT22;24915;50.858;4.376;2022-12-19T01:17:43;5.50;99.90
39189;DHT22;24915;50.858;4.376;2022-12-19T01:20:09;5.50;99.90
39189;DHT22;24915;50.858;4.376;2022-12-19T01:22:35;5.60;99.90
39189;DHT22;24915;50.858;4.376;2022-12-19T01:25:01;5.60;99.90
39189;DHT22;24915;50.858;4.376;2022-12-19T01:27:26;5.70;99.90
39189;DHT22;24915;50.858;4.376;2022-12-19T01:29:52;5.70;99.90
39189;DHT22;24915;50.858;4.376;2022-12-19T01:32:19;5.70;99.90
39189;DHT22;24915;50.858;4.376;2022-12-19T01:34:44;5.80;99.90
39189;DHT22;24915;50.858;4.376;2022-12-19T01:37:10;5.80;99.90
39189;DHT22;24915;50.858;4.376;2022-12-19T01:39:36;5.90;99.90
39189;DHT22;24915;50.858;4.376;2022-12-19T01:42:02;5.90;99.90
39189;DHT22;24915;50.858;4.376;2022-12-19T01:44:29;6.00;99.90
39189;DHT22;24915;50.858;4.376;2022-12-19T01:46:56;6.00;99.90
39189;DHT22;24915;50.858;4.376;2022-12-19T01:49:29;6.00;99.90
39189;DHT22;24915;50.858;4.376;2022-12-19T01:51:57;6.10;99.90
39189;DHT22;24915;50.858;4.376;2022-12-19T01:54:38;6.20;99.90
39189;DHT22;24915;50.858;4.376;2022-12-19T01:57:09;6.30;99.90
39189;DHT22;24915;50.858;4.376;2022-12-19T01:59:40;6.30;99.90
39189;DHT22;24915;50.858;4.376;2022-12-19T02:02:13;6.40;99.90
39189;DHT22;24915;50.858;4.376;2022-12-19T02:04:44;6.50;99.90
39189;DHT22;24915;50.858;4.376;2022-12-19T02:07:11;6.60;99.90
39189;DHT22;24915;50.858;4.376;2022-12-19T02:09:36;6.60;99.90
39189;DHT22;24915;50.858;4.376;2022-12-19T02:12:03;6.70;99.90
39189;DHT22;24915;50.858;4.376;2022-12-19T02:14:28;6.70;99.90
39189;DHT22;24915;50.858;4.376;2022-12-19T02:25:41;6.90;99.90
39189;DHT22;24915;50.858;4.376;2022-12-19T02:36:35;6.90;99.90
39189;DHT22;24915;50.858;4.376;2022-12-19T02:39:14;6.90;99.90
39189;DHT22;24915;50.858;4.376;2022-12-19T02:41:48;6.90;99.90
39189;DHT22;24915;50.858;4.376;2022-12-19T02:44:43;6.90;99.90
39189;DHT22;24915;50.858;4.376;2022-12-19T02:47:10;6.90;99.90
39189;DHT22;24915;50.858;4.376;2022-12-19T02:49:37;6.90;99.90
39189;DHT22;24915;50.858;4.376;2022-12-19T02:55:11;6.90;99.90
39189;DHT22;24915;50.858;4.376;2022-12-19T02:58:02;6.80;99.90
39189;DHT22;24915;50.858;4.376;2022-12-19T03:00:31;6.80;99.90
39189;DHT22;24915;50.858;4.376;2022-12-19T03:03:37;6.80;99.90
39189;DHT22;24915;50.858;4.376;2022-12-19T03:06:16;6.80;99.90
39189;DHT22;24915;50.858;4.376;2022-12-19T03:09:01;6.80;99.90
39189;DHT22;24915;50.858;4.376;2022-12-19T03:11:34;6.80;99.90
39189;DHT22;24915;50.858;4.376;2022-12-19T03:14:04;6.90;99.90
39189;DHT22;24915;50.858;4.376;2022-12-19T03:16:33;6.90;99.90
39189;DHT22;24915;50.858;4.376;2022-12-19T03:19:00;6.90;99.90
39189;DHT22;24915;50.858;4.376;2022-12-19T03:21:31;6.90;99.90
39189;DHT22;24915;50.858;4.376;2022-12-19T03:23:59;6.90;99.90
39189;DHT22;24915;50.858;4.376;2022-12-19T03:26:28;6.90;99.90
39189;DHT22;24915;50.858;4.376;2022-12-19T03:29:08;7.00;99.90
39189;DHT22;24915;50.858;4.376;2022-12-19T03:31:37;7.00;99.90
39189;DHT22;24915;50.858;4.376;2022-12-19T03:37:01;7.10;99.90
39189;DHT22;24915;50.858;4.376;2022-12-19T03:39:29;7.10;99.90
39189;DHT22;24915;50.858;4.376;2022-12-19T03:41:57;7.10;99.90
39189;DHT22;24915;50.858;4.376;2022-12-19T03:44:43;7.10;99.90
39189;DHT22;24915;50.858;4.376;2022-12-19T03:47:34;7.20;99.90
39189;DHT22;24915;50.858;4.376;2022-12-19T03:50:02;7.20;99.90
39189;DHT22;24915;50.858;4.376;2022-12-19T03:52:34;7.30;99.90
39189;DHT22;24915;50.858;4.376;2022-12-19T03:55:13;7.40;99.90
39189;DHT22;24915;50.858;4.376;2022-12-19T03:57:55;7.40;99.90
39189;DHT22;24915;50.858;4.376;2022-12-19T04:00:22;7.40;99.90
39189;DHT22;24915;50.858;4.376;2022-12-19T04:02:51;7.40;99.90
39189;DHT22;24915;50.858;4.376;2022-12-19T04:05:20;7.50;99.90
39189;DHT22;24915;50.858;4.376;2022-12-19T04:07:47;7.50;99.90
39189;DHT22;24915;50.858;4.376;2022-12-19T04:10:17;7.60;99.90
39189;DHT22;24915;50.858;4.376;2022-12-19T04:12:59;7.60;99.90
39189;DHT22;24915;50.858;4.376;2022-12-19T04:15:53;7.70;99.90
39189;DHT22;24915;50.858;4.376;2022-12-19T04:18:23;7.70;99.90
39189;DHT22;24915;50.858;4.376;2022-12-19T04:21:12;7.80;99.90
39189;DHT22;24915;50.858;4.376;2022-12-19T04:23:45;7.80;99.90
39189;DHT22;24915;50.858;4.376;2022-12-19T04:26:12;7.90;99.90
39189;DHT22;24915;50.858;4.376;2022-12-19T04:28:47;7.90;99.90
39189;DHT22;24915;50.858;4.376;2022-12-19T04:31:15;7.90;99.90
39189;DHT22;24915;50.858;4.376;2022-12-19T04:33:42;7.90;99.90
39189;DHT22;24915;50.858;4.376;2022-12-19T04:36:08;8.00;99.90
39189;DHT22;24915;50.858;4.376;2022-12-19T04:38:34;8.00;99.90
39189;DHT22;24915;50.858;4.376;2022-12-19T04:41:00;8.00;99.90
39189;DHT22;24915;50.858;4.376;2022-12-19T04:43:26;8.10;99.90
39189;DHT22;24915;50.858;4.376;2022-12-19T04:45:51;8.10;99.90
39189;DHT22;24915;50.858;4.376;2022-12-19T04:48:17;8.10;99.90
39189;DHT22;24915;50.858;4.376;2022-12-19T04:50:43;8.20;99.90
39189;DHT22;24915;50.858;4.376;2022-12-19T04:53:09;8.20;99.90
39189;DHT22;24915;50.858;4.376;2022-12-19T04:55:35;8.20;99.90
39189;DHT22;24915;50.858;4.376;2022-12-19T04:58:00;8.20;99.90
39189;DHT22;24915;50.858;4.376;2022-12-19T05:00:27;8.20;99.90
39189;DHT22;24915;50.858;4.376;2022-12-19T05:02:53;8.20;99.90
39189;DHT22;24915;50.858;4.376;2022-12-19T05:05:19;8.30;99.90
39189;DHT22;24915;50.858;4.376;2022-12-19T05:07:44;8.30;99.90
39189;DHT22;24915;50.858;4.376;2022-12-19T05:10:11;8.30;99.90
39189;DHT22;24915;50.858;4.376;2022-12-19T05:12:37;8.30;99.90
39189;DHT22;24915;50.858;4.376;2022-12-19T05:15:03;8.30;99.90
39189;DHT22;24915;50.858;4.376;2022-12-19T05:17:28;8.30;99.90
39189;DHT22;24915;50.858;4.376;2022-12-19T05:19:54;8.40;99.90
39189;DHT22;24915;50.858;4.376;2022-12-19T05:22:20;8.40;99.90
39189;DHT22;24915;50.858;4.376;2022-12-19T05:24:45;8.40;99.90
39189;DHT22;24915;50.858;4.376;2022-12-19T05:27:11;8.40;99.90
39189;DHT22;24915;50.858;4.376;2022-12-19T05:29:37;8.40;99.90
39189;DHT22;24915;50.858;4.376;2022-12-19T05:32:02;8.40;99.90
39189;DHT22;24915;50.858;4.376;2022-12-19T05:34:28;8.40;99.90
39189;DHT22;24915;50.858;4.376;2022-12-19T05:36:54;8.40;99.90
39189;DHT22;24915;50.858;4.376;2022-12-19T05:39:19;8.40;99.90
39189;DHT22;24915;50.858;4.376;2022-12-19T05:41:45;8.40;99.90
39189;DHT22;24915;50.858;4.376;2022-12-19T05:44:11;8.40;99.90
39189;DHT22;24915;50.858;4.376;2022-12-19T05:46:36;8.50;99.90
39189;DHT22;24915;50.858;4.376;2022-12-19T05:49:02;8.50;99.90
39189;DHT22;24915;50.858;4.376;2022-12-19T05:51:28;8.50;99.90
39189;DHT22;24915;50.858;4.376;2022-12-19T05:53:53;8.50;99.90
39189;DHT22;24915;50.858;4.376;2022-12-19T05:56:20;8.50;99.90
39189;DHT22;24915;50.858;4.376;2022-12-19T05:58:47;8.60;99.90
39189;DHT22;24915;50.858;4.376;2022-12-19T06:01:24;8.60;99.90
39189;DHT22;24915;50.858;4.376;2022-12-19T06:03:50;8.60;99.90
39189;DHT22;24915;50.858;4.376;2022-12-19T06:06:22;8.60;99.90
39189;DHT22;24915;50.858;4.376;2022-12-19T06:08:52;8.60;99.90
39189;DHT22;24915;50.858;4.376;2022-12-19T06:11:18;8.70;99.90
39189;DHT22;24915;50.858;4.376;2022-12-19T06:13:44;8.60;99.90
39189;DHT22;24915;50.858;4.376;2022-12-19T06:16:15;8.70;99.90
39189;DHT22;24915;50.858;4.376;2022-12-19T06:18:42;8.70;99.90
39189;DHT22;24915;50.858;4.376;2022-12-19T06:21:21;8.70;99.90
39189;DHT22;24915;50.858;4.376;2022-12-19T06:23:48;8.70;99.90
39189;DHT22;24915;50.858;4.376;2022-12-19T06:26:16;8.70;99.90
39189;DHT22;24915;50.858;4.376;2022-12-19T06:28:41;8.70;99.90
39189;DHT22;24915;50.858;4.376;2022-12-19T06:31:08;8.70;99.90
39189;DHT22;24915;50.858;4.376;2022-12-19T06:33:34;8.70;99.90
39189;DHT22;24915;50.858;4.376;2022-12-19T06:36:10;8.70;99.90
39189;DHT22;24915;50.858;4.376;2022-12-19T06:38:36;8.70;99.90
39189;DHT22;24915;50.858;4.376;2022-12-19T06:41:02;8.70;99.90
39189;DHT22;24915;50.858;4.376;2022-12-19T06:43:47;8.80;99.90
39189;DHT22;24915;50.858;4.376;2022-12-19T06:46:13;8.80;99.90
39189;DHT22;24915;50.858;4.376;2022-12-19T06:48:38;8.80;99.90
39189;DHT22;24915;50.858;4.376;2022-12-19T06:51:04;8.80;99.90
39189;DHT22;24915;50.858;4.376;2022-12-19T06:53:30;8.80;99.90
39189;DHT22;24915;50.858;4.376;2022-12-19T06:55:57;8.80;99.90
39189;DHT22;24915;50.858;4.376;2022-12-19T06:58:24;8.90;99.90
39189;DHT22;24915;50.858;4.376;2022-12-19T07:00:50;8.90;99.90
39189;DHT22;24915;50.858;4.376;2022-12-19T07:03:20;8.90;99.90
39189;DHT22;24915;50.858;4.376;2022-12-19T07:05:47;8.90;99.90
39189;DHT22;24915;50.858;4.376;2022-12-19T07:08:13;8.90;99.90
39189;DHT22;24915;50.858;4.376;2022-12-19T07:10:38;9.00;99.90
39189;DHT22;24915;50.858;4.376;2022-12-19T07:13:04;9.00;99.90
39189;DHT22;24915;50.858;4.376;2022-12-19T07:15:31;9.00;99.90
39189;DHT22;24915;50.858;4.376;2022-12-19T07:17:59;9.10;99.90
39189;DHT22;24915;50.858;4.376;2022-12-19T07:20:26;9.10;99.90
39189;DHT22;24915;50.858;4.376;2022-12-19T07:22:52;9.10;99.90
39189;DHT22;24915;50.858;4.376;2022-12-19T07:25:18;9.10;99.90
39189;DHT22;24915;50.858;4.376;2022-12-19T07:27:44;9.00;99.90
39189;DHT22;24915;50.858;4.376;2022-12-19T07:30:11;9.00;99.90
39189;DHT22;24915;50.858;4.376;2022-12-19T07:32:36;8.90;99.90
39189;DHT22;24915;50.858;4.376;2022-12-19T07:35:05;8.80;99.90
39189;DHT22;24915;50.858;4.376;2022-12-19T07:37:31;8.80;99.90
39189;DHT22;24915;50.858;4.376;2022-12-19T07:39:56;8.80;99.90
39189;DHT22;24915;50.858;4.376;2022-12-19T07:42:22;8.80;99.90
39189;DHT22;24915;50.858;4.376;2022-12-19T07:44:48;8.80;99.90
39189;DHT22;24915;50.858;4.376;2022-12-19T07:47:13;8.90;99.90
39189;DHT22;24915;50.858;4.376;2022-12-19T07:49:39;8.90;99.90
39189;DHT22;24915;50.858;4.376;2022-12-19T07:52:05;8.90;99.90
39189;DHT22;24915;50.858;4.376;2022-12-19T07:54:30;9.00;99.90
39189;DHT22;24915;50.858;4.376;2022-12-19T07:56:56;9.00;99.90
39189;DHT22;24915;50.858;4.376;2022-12-19T07:59:21;9.00;99.90
39189;DHT22;24915;50.858;4.376;2022-12-19T08:01:47;9.10;99.90
39189;DHT22;24915;50.858;4.376;2022-12-19T08:04:13;9.20;99.90
39189;DHT22;24915;50.858;4.376;2022-12-19T08:06:38;9.20;99.90
39189;DHT22;24915;50.858;4.376;2022-12-19T08:09:04;9.20;99.90
39189;DHT22;24915;50.858;4.376;2022-12-19T08:11:30;9.20;99.90
39189;DHT22;24915;50.858;4.376;2022-12-19T08:13:56;9.30;99.90
39189;DHT22;24915;50.858;4.376;2022-12-19T08:16:24;9.30;99.90
39189;DHT22;24915;50.858;4.376;2022-12-19T08:18:51;9.30;99.90
39189;DHT22;24915;50.858;4.376;2022-12-19T08:21:16;9.30;99.90
39189;DHT22;24915;50.858;4.376;2022-12-19T08:23:42;9.30;99.90
39189;DHT22;24915;50.858;4.376;2022-12-19T08:26:12;9.30;99.90
39189;DHT22;24915;50.858;4.376;2022-12-19T08:28:38;9.30;99.90
39189;DHT22;24915;50.858;4.376;2022-12-19T08:31:06;9.30;99.90
39189;DHT22;24915;50.858;4.376;2022-12-19T08:33:32;9.30;99.90
39189;DHT22;24915;50.858;4.376;2022-12-19T08:35:57;9.30;99.90
39189;DHT22;24915;50.858;4.376;2022-12-19T08:38:23;9.30;99.90
39189;DHT22;24915;50.858;4.376;2022-12-19T08:40:52;9.30;99.90
39189;DHT22;24915;50.858;4.376;2022-12-19T08:43:19;9.30;99.90
39189;DHT22;24915;50.858;4.376;2022-12-19T08:45:47;9.30;99.90
39189;DHT22;24915;50.858;4.376;2022-12-19T08:48:13;9.30;99.90
39189;DHT22;24915;50.858;4.376;2022-12-19T08:50:38;9.40;99.90
39189;DHT22;24915;50.858;4.376;2022-12-19T08:53:04;9.30;99.90
39189;DHT22;24915;50.858;4.376;2022-12-19T08:55:29;9.40;99.90
39189;DHT22;24915;50.858;4.376;2022-12-19T08:57:55;9.40;99.90
39189;DHT22;24915;50.858;4.376;2022-12-19T09:00:21;9.40;99.90
39189;DHT22;24915;50.858;4.376;2022-12-19T09:02:46;9.50;99.90
39189;DHT22;24915;50.858;4.376;2022-12-19T09:05:12;9.50;99.90
39189;DHT22;24915;50.858;4.376;2022-12-19T09:07:37;9.50;99.90
39189;DHT22;24915;50.858;4.376;2022-12-19T09:10:05;9.50;99.90
39189;DHT22;24915;50.858;4.376;2022-12-19T09:12:32;9.50;99.90
39189;DHT22;24915;50.858;4.376;2022-12-19T09:14:57;9.50;99.90
39189;DHT22;24915;50.858;4.376;2022-12-19T09:17:23;9.50;99.90
39189;DHT22;24915;50.858;4.376;2022-12-19T09:19:49;9.50;99.90
39189;DHT22;24915;50.858;4.376;2022-12-19T09:22:15;9.50;99.90
39189;DHT22;24915;50.858;4.376;2022-12-19T09:24:40;9.50;99.90
39189;DHT22;24915;50.858;4.376;2022-12-19T09:27:06;9.50;99.90
39189;DHT22;24915;50.858;4.376;2022-12-19T09:29:32;9.40;99.90
39189;DHT22;24915;50.858;4.376;2022-12-19T09:31:57;9.40;99.90
39189;DHT22;24915;50.858;4.376;2022-12-19T09:34:25;9.30;99.90
39189;DHT22;24915;50.858;4.376;2022-12-19T09:36:51;9.30;99.90
39189;DHT22;24915;50.858;4.376;2022-12-19T09:39:17;9.30;99.90
39189;DHT22;24915;50.858;4.376;2022-12-19T09:44:39;9.30;99.90
39189;DHT22;24915;50.858;4.376;2022-12-19T09:47:12;9.40;99.90
39189;DHT22;24915;50.858;4.376;2022-12-19T09:49:44;9.40;99.90
39189;DHT22;24915;50.858;4.376;2022-12-19T09:54:59;9.40;99.90
39189;DHT22;24915;50.858;4.376;2022-12-19T10:00:01;9.40;99.90
39189;DHT22;24915;50.858;4.376;2022-12-19T10:07:42;9.50;99.90
39189;DHT22;24915;50.858;4.376;2022-12-19T10:10:17;9.50;99.90
39189;DHT22;24915;50.858;4.376;2022-12-19T10:13:30;9.60;99.90
39189;DHT22;24915;50.858;4.376;2022-12-19T10:16:08;9.60;99.90
39189;DHT22;24915;50.858;4.376;2022-12-19T10:24:32;9.70;99.90
39189;DHT22;24915;50.858;4.376;2022-12-19T10:27:26;9.70;99.90
39189;DHT22;24915;50.858;4.376;2022-12-19T10:30:19;9.80;99.90
39189;DHT22;24915;50.858;4.376;2022-12-19T10:35:41;9.90;99.90
39189;DHT22;24915;50.858;4.376;2022-12-19T10:40:42;10.00;99.90
39189;DHT22;24915;50.858;4.376;2022-12-19T10:45:49;10.10;99.90
39189;DHT22;24915;50.858;4.376;2022-12-19T10:48:18;10.10;99.90
39189;DHT22;24915;50.858;4.376;2022-12-19T10:50:44;10.20;99.90
39189;DHT22;24915;50.858;4.376;2022-12-19T10:53:12;10.30;99.90
39189;DHT22;24915;50.858;4.376;2022-12-19T10:56:10;10.40;99.90
39189;DHT22;24915;50.858;4.376;2022-12-19T10:58:37;10.50;99.90
39189;DHT22;24915;50.858;4.376;2022-12-19T11:01:13;10.60;99.90
39189;DHT22;24915;50.858;4.376;2022-12-19T11:03:41;10.60;99.90
39189;DHT22;24915;50.858;4.376;2022-12-19T11:09:19;10.70;99.90
39189;DHT22;24915;50.858;4.376;2022-12-19T11:11:46;10.80;99.90
39189;DHT22;24915;50.858;4.376;2022-12-19T11:14:21;10.80;99.90
39189;DHT22;24915;50.858;4.376;2022-12-19T11:16:48;11.00;99.90
39189;DHT22;24915;50.858;4.376;2022-12-19T11:21:52;11.10;99.90
39189;DHT22;24915;50.858;4.376;2022-12-19T11:24:24;11.10;99.90
39189;DHT22;24915;50.858;4.376;2022-12-19T11:26:52;11.20;99.90
39189;DHT22;24915;50.858;4.376;2022-12-19T11:29:22;11.20;99.90
39189;DHT22;24915;50.858;4.376;2022-12-19T11:32:00;11.30;99.90
39189;DHT22;24915;50.858;4.376;2022-12-19T11:34:33;11.30;99.90
39189;DHT22;24915;50.858;4.376;2022-12-19T11:37:38;11.30;99.90
39189;DHT22;24915;50.858;4.376;2022-12-19T11:40:12;11.40;99.90
39189;DHT22;24915;50.858;4.376;2022-12-19T11:42:49;11.40;99.90
39189;DHT22;24915;50.858;4.376;2022-12-19T11:48:20;11.40;99.90
39189;DHT22;24915;50.858;4.376;2022-12-19T11:53:46;11.40;99.90
39189;DHT22;24915;50.858;4.376;2022-12-19T11:56:16;11.40;99.90
39189;DHT22;24915;50.858;4.376;2022-12-19T11:58:52;11.40;99.90
39189;DHT22;24915;50.858;4.376;2022-12-19T12:04:32;11.30;99.90
39189;DHT22;24915;50.858;4.376;2022-12-19T12:07:03;11.30;99.90
39189;DHT22;24915;50.858;4.376;2022-12-19T12:22:39;11.30;99.90
39189;DHT22;24915;50.858;4.376;2022-12-19T12:39:46;11.40;99.90
39189;DHT22;24915;50.858;4.376;2022-12-19T12:44:56;11.50;99.90
39189;DHT22;24915;50.858;4.376;2022-12-19T12:47:27;11.50;99.90
39189;DHT22;24915;50.858;4.376;2022-12-19T12:50:05;11.50;99.90
39189;DHT22;24915;50.858;4.376;2022-12-19T12:52:37;11.50;99.90
39189;DHT22;24915;50.858;4.376;2022-12-19T12:55:11;11.50;99.90
39189;DHT22;24915;50.858;4.376;2022-12-19T12:57:38;11.50;99.90
39189;DHT22;24915;50.858;4.376;2022-12-19T13:02:45;11.50;99.90
39189;DHT22;24915;50.858;4.376;2022-12-19T13:05:38;11.50;99.90
39189;DHT22;24915;50.858;4.376;2022-12-19T13:10:56;11.50;99.90
39189;DHT22;24915;50.858;4.376;2022-12-19T13:13:49;11.60;99.90
39189;DHT22;24915;50.858;4.376;2022-12-19T13:24:45;11.60;99.90
39189;DHT22;24915;50.858;4.376;2022-12-19T13:38:18;11.60;99.90
39189;DHT22;24915;50.858;4.376;2022-12-19T13:41:02;11.60;99.90
39189;DHT22;24915;50.858;4.376;2022-12-19T13:43:54;11.60;99.90
39189;DHT22;24915;50.858;4.376;2022-12-19T13:48:52;11.60;99.90
39189;DHT22;24915;50.858;4.376;2022-12-19T13:51:19;11.60;99.90
39189;DHT22;24915;50.858;4.376;2022-12-19T13:53:45;11.60;99.90
39189;DHT22;24915;50.858;4.376;2022-12-19T13:56:15;11.60;99.90
39189;DHT22;24915;50.858;4.376;2022-12-19T13:58:55;11.60;99.90
39189;DHT22;24915;50.858;4.376;2022-12-19T14:01:29;11.60;99.90
39189;DHT22;24915;50.858;4.376;2022-12-19T14:03:58;11.60;99.90
39189;DHT22;24915;50.858;4.376;2022-12-19T14:06:30;11.70;99.90
39189;DHT22;24915;50.858;4.376;2022-12-19T14:09:05;11.70;99.90
39189;DHT22;24915;50.858;4.376;2022-12-19T14:11:36;11.70;99.90
39189;DHT22;24915;50.858;4.376;2022-12-19T14:14:07;11.60;99.90
39189;DHT22;24915;50.858;4.376;2022-12-19T14:16:54;11.60;99.90
39189;DHT22;24915;50.858;4.376;2022-12-19T14:19:25;11.60;99.90
39189;DHT22;24915;50.858;4.376;2022-12-19T14:21:52;11.60;99.90
39189;DHT22;24915;50.858;4.376;2022-12-19T14:24:22;11.60;99.90
39189;DHT22;24915;50.858;4.376;2022-12-19T14:26:54;11.50;99.90
39189;DHT22;24915;50.858;4.376;2022-12-19T14:29:28;11.50;99.90
39189;DHT22;24915;50.858;4.376;2022-12-19T14:31:55;11.50;99.90
39189;DHT22;24915;50.858;4.376;2022-12-19T14:34:24;11.60;99.90
39189;DHT22;24915;50.858;4.376;2022-12-19T14:36:55;11.80;99.90
39189;DHT22;24915;50.858;4.376;2022-12-19T14:39:28;11.90;99.90
39189;DHT22;24915;50.858;4.376;2022-12-19T14:42:13;11.90;99.90
39189;DHT22;24915;50.858;4.376;2022-12-19T14:44:58;11.90;99.90
39189;DHT22;24915;50.858;4.376;2022-12-19T14:47:32;11.80;99.90
39189;DHT22;24915;50.858;4.376;2022-12-19T14:49:58;11.70;99.90
39189;DHT22;24915;50.858;4.376;2022-12-19T14:57:47;11.60;99.90
39189;DHT22;24915;50.858;4.376;2022-12-19T15:00:28;11.50;99.90
39189;DHT22;24915;50.858;4.376;2022-12-19T15:02:55;11.50;99.90
39189;DHT22;24915;50.858;4.376;2022-12-19T15:05:22;11.50;99.90
39189;DHT22;24915;50.858;4.376;2022-12-19T15:07:54;11.50;99.90
39189;DHT22;24915;50.858;4.376;2022-12-19T15:10:31;11.50;99.90
39189;DHT22;24915;50.858;4.376;2022-12-19T15:13:21;11.50;99.90
39189;DHT22;24915;50.858;4.376;2022-12-19T15:15:59;11.50;99.90
39189;DHT22;24915;50.858;4.376;2022-12-19T15:20:58;11.50;99.90
39189;DHT22;24915;50.858;4.376;2022-12-19T15:23:25;11.50;99.90
39189;DHT22;24915;50.858;4.376;2022-12-19T15:25:52;11.50;99.90
39189;DHT22;24915;50.858;4.376;2022-12-19T15:28:21;11.50;99.90
39189;DHT22;24915;50.858;4.376;2022-12-19T15:30:54;11.50;99.90
39189;DHT22;24915;50.858;4.376;2022-12-19T15:33:22;11.50;99.90
39189;DHT22;24915;50.858;4.376;2022-12-19T15:35:48;11.50;99.90
39189;DHT22;24915;50.858;4.376;2022-12-19T15:38:13;11.50;99.90
39189;DHT22;24915;50.858;4.376;2022-12-19T15:40:40;11.50;99.90
39189;DHT22;24915;50.858;4.376;2022-12-19T15:43:20;11.50;99.90
39189;DHT22;24915;50.858;4.376;2022-12-19T15:45:50;11.50;99.90
39189;DHT22;24915;50.858;4.376;2022-12-19T15:48:17;11.40;99.90
39189;DHT22;24915;50.858;4.376;2022-12-19T15:50:44;11.40;99.90
39189;DHT22;24915;50.858;4.376;2022-12-19T15:53:19;11.40;99.90
39189;DHT22;24915;50.858;4.376;2022-12-19T15:55:45;11.40;99.90
39189;DHT22;24915;50.858;4.376;2022-12-19T15:58:12;11.40;99.90
39189;DHT22;24915;50.858;4.376;2022-12-19T16:00:38;11.40;99.90
39189;DHT22;24915;50.858;4.376;2022-12-19T16:03:10;11.40;99.90
39189;DHT22;24915;50.858;4.376;2022-12-19T16:05:36;11.40;99.90
39189;DHT22;24915;50.858;4.376;2022-12-19T16:08:04;11.40;99.90
39189;DHT22;24915;50.858;4.376;2022-12-19T16:10:30;11.40;99.90
39189;DHT22;24915;50.858;4.376;2022-12-19T16:12:56;11.40;99.90
39189;DHT22;24915;50.858;4.376;2022-12-19T16:15:31;11.30;99.90
39189;DHT22;24915;50.858;4.376;2022-12-19T16:17:59;11.40;99.90
39189;DHT22;24915;50.858;4.376;2022-12-19T16:20:27;11.40;99.90
39189;DHT22;24915;50.858;4.376;2022-12-19T16:22:54;11.40;99.90
39189;DHT22;24915;50.858;4.376;2022-12-19T16:25:21;11.40;99.90
39189;DHT22;24915;50.858;4.376;2022-12-19T16:27:53;11.40;99.90
39189;DHT22;24915;50.858;4.376;2022-12-19T16:30:22;11.40;99.90
39189;DHT22;24915;50.858;4.376;2022-12-19T16:32:49;11.40;99.90
39189;DHT22;24915;50.858;4.376;2022-12-19T16:35:17;11.40;99.90
39189;DHT22;24915;50.858;4.376;2022-12-19T16:37:44;11.40;99.90
39189;DHT22;24915;50.858;4.376;2022-12-19T16:42:39;11.50;99.90
39189;DHT22;24915;50.858;4.376;2022-12-19T16:45:09;11.50;99.90
39189;DHT22;24915;50.858;4.376;2022-12-19T16:47:39;11.50;99.90
39189;DHT22;24915;50.858;4.376;2022-12-19T16:52:45;11.50;99.90
39189;DHT22;24915;50.858;4.376;2022-12-19T16:55:12;11.50;99.90
39189;DHT22;24915;50.858;4.376;2022-12-19T16:57:38;11.50;99.90
39189;DHT22;24915;50.858;4.376;2022-12-19T17:00:05;11.50;99.90
39189;DHT22;24915;50.858;4.376;2022-12-19T17:03:02;11.60;99.90
39189;DHT22;24915;50.858;4.376;2022-12-19T17:05:31;11.50;99.90
39189;DHT22;24915;50.858;4.376;2022-12-19T17:07:58;11.50;99.90
39189;DHT22;24915;50.858;4.376;2022-12-19T17:10:29;11.50;99.90
39189;DHT22;24915;50.858;4.376;2022-12-19T17:12:56;11.60;99.90
39189;DHT22;24915;50.858;4.376;2022-12-19T17:15:33;11.60;99.90
39189;DHT22;24915;50.858;4.376;2022-12-19T17:18:03;11.60;99.90
39189;DHT22;24915;50.858;4.376;2022-12-19T17:20:37;11.60;99.90
39189;DHT22;24915;50.858;4.376;2022-12-19T17:23:29;11.60;99.90
39189;DHT22;24915;50.858;4.376;2022-12-19T17:25:57;11.60;99.90
39189;DHT22;24915;50.858;4.376;2022-12-19T17:28:25;11.60;99.90
39189;DHT22;24915;50.858;4.376;2022-12-19T17:30:56;11.60;99.90
39189;DHT22;24915;50.858;4.376;2022-12-19T17:33:29;11.60;99.90
39189;DHT22;24915;50.858;4.376;2022-12-19T17:35:58;11.60;99.90
39189;DHT22;24915;50.858;4.376;2022-12-19T17:38:24;11.60;99.90
39189;DHT22;24915;50.858;4.376;2022-12-19T17:40:51;11.60;99.90
39189;DHT22;24915;50.858;4.376;2022-12-19T17:43:17;11.60;99.90
39189;DHT22;24915;50.858;4.376;2022-12-19T17:45:43;11.60;99.90
39189;DHT22;24915;50.858;4.376;2022-12-19T17:48:21;11.60;99.90
39189;DHT22;24915;50.858;4.376;2022-12-19T17:50:47;11.60;99.90
39189;DHT22;24915;50.858;4.376;2022-12-19T17:53:14;11.60;99.90
39189;DHT22;24915;50.858;4.376;2022-12-19T17:55:40;11.60;99.90
39189;DHT22;24915;50.858;4.376;2022-12-19T17:58:07;11.60;99.90
39189;DHT22;24915;50.858;4.376;2022-12-19T18:00:33;11.60;99.90
39189;DHT22;24915;50.858;4.376;2022-12-19T18:03:03;11.60;99.90
39189;DHT22;24915;50.858;4.376;2022-12-19T18:05:34;11.60;99.90
39189;DHT22;24915;50.858;4.376;2022-12-19T18:08:00;11.60;99.90
39189;DHT22;24915;50.858;4.376;2022-12-19T18:10:28;11.60;99.90
39189;DHT22;24915;50.858;4.376;2022-12-19T18:12:55;11.60;99.90